sensor_id;sensor_type;location;lat;lon;timestamp;P1;durP1;ratioP1;P2;durP2;ratioP2
7657;SDS011;8462;53.156;8.220;2023-05-10T00:00:42;10.87;;;7.80;;
7657;SDS011;8462;53.156;8.220;2023-05-10T00:03:08;10.50;;;7.63;;
7657;SDS011;8462;53.156;8.220;2023-05-10T00:05:35;10.23;;;7.17;;
7657;SDS011;8462;53.156;8.220;2023-05-10T00:08:02;9.57;;;6.97;;
7657;SDS011;8462;53.156;8.220;2023-05-10T00:10:31;10.40;;;7.57;;
7657;SDS011;8462;53.156;8.220;2023-05-10T00:12:57;9.97;;;7.60;;
7657;SDS011;8462;53.156;8.220;2023-05-10T00:15:25;12.07;;;8.00;;
7657;SDS011;8462;53.156;8.220;2023-05-10T00:17:51;11.43;;;7.43;;
7657;SDS011;8462;53.156;8.220;2023-05-10T00:20:19;11.17;;;8.07;;
7657;SDS011;8462;53.156;8.220;2023-05-10T00:22:45;11.20;;;7.40;;
7657;SDS011;8462;53.156;8.220;2023-05-10T00:25:12;9.77;;;7.10;;
7657;SDS011;8462;53.156;8.220;2023-05-10T00:27:40;9.83;;;7.73;;
7657;SDS011;8462;53.156;8.220;2023-05-10T00:30:08;9.83;;;7.03;;
7657;SDS011;8462;53.156;8.220;2023-05-10T00:32:35;9.63;;;7.13;;
7657;SDS011;8462;53.156;8.220;2023-05-10T00:35:02;11.60;;;6.93;;
7657;SDS011;8462;53.156;8.220;2023-05-10T00:37:29;8.90;;;6.90;;
7657;SDS011;8462;53.156;8.220;2023-05-10T00:39:55;9.40;;;6.53;;
7657;SDS011;8462;53.156;8.220;2023-05-10T00:42:22;8.83;;;6.97;;
7657;SDS011;8462;53.156;8.220;2023-05-10T00:44:53;9.23;;;6.43;;
7657;SDS011;8462;53.156;8.220;2023-05-10T00:47:20;9.60;;;6.93;;
7657;SDS011;8462;53.156;8.220;2023-05-10T00:49:47;8.67;;;6.97;;
7657;SDS011;8462;53.156;8.220;2023-05-10T00:52:15;9.00;;;6.63;;
7657;SDS011;8462;53.156;8.220;2023-05-10T00:54:42;11.10;;;6.80;;
7657;SDS011;8462;53.156;8.220;2023-05-10T00:57:09;10.90;;;6.90;;
7657;SDS011;8462;53.156;8.220;2023-05-10T00:59:36;9.10;;;6.50;;
7657;SDS011;8462;53.156;8.220;2023-05-10T01:02:05;9.00;;;6.60;;
7657;SDS011;8462;53.156;8.220;2023-05-10T01:04:33;8.27;;;6.20;;
7657;SDS011;8462;53.156;8.220;2023-05-10T01:07:02;10.30;;;6.30;;
7657;SDS011;8462;53.156;8.220;2023-05-10T01:09:29;6.87;;;5.53;;
7657;SDS011;8462;53.156;8.220;2023-05-10T01:11:56;7.67;;;5.70;;
7657;SDS011;8462;53.156;8.220;2023-05-10T01:14:23;8.53;;;6.80;;
7657;SDS011;8462;53.156;8.220;2023-05-10T01:16:51;9.57;;;6.70;;
7657;SDS011;8462;53.156;8.220;2023-05-10T01:19:21;8.57;;;6.03;;
7657;SDS011;8462;53.156;8.220;2023-05-10T01:21:53;8.07;;;6.30;;
7657;SDS011;8462;53.156;8.220;2023-05-10T01:24:38;9.33;;;6.57;;
7657;SDS011;8462;53.156;8.220;2023-05-10T01:27:20;10.23;;;6.90;;
7657;SDS011;8462;53.156;8.220;2023-05-10T01:33:06;8.40;;;6.43;;
7657;SDS011;8462;53.156;8.220;2023-05-10T01:35:39;8.10;;;6.43;;
7657;SDS011;8462;53.156;8.220;2023-05-10T01:38:15;9.90;;;6.80;;
7657;SDS011;8462;53.156;8.220;2023-05-10T01:40:48;8.63;;;6.70;;
7657;SDS011;8462;53.156;8.220;2023-05-10T01:43:25;8.33;;;6.47;;
7657;SDS011;8462;53.156;8.220;2023-05-10T01:45:59;9.33;;;7.03;;
7657;SDS011;8462;53.156;8.220;2023-05-10T01:48:36;8.63;;;6.80;;
7657;SDS011;8462;53.156;8.220;2023-05-10T01:51:05;9.83;;;7.03;;
7657;SDS011;8462;53.156;8.220;2023-05-10T01:53:33;7.87;;;6.03;;
7657;SDS011;8462;53.156;8.220;2023-05-10T01:56:01;10.10;;;6.90;;
7657;SDS011;8462;53.156;8.220;2023-05-10T01:58:31;7.93;;;6.03;;
7657;SDS011;8462;53.156;8.220;2023-05-10T02:01:01;8.83;;;6.30;;
7657;SDS011;8462;53.156;8.220;2023-05-10T02:03:30;8.67;;;6.23;;
7657;SDS011;8462;53.156;8.220;2023-05-10T02:06:01;9.07;;;6.17;;
7657;SDS011;8462;53.156;8.220;2023-05-10T02:08:29;8.63;;;6.37;;
7657;SDS011;8462;53.156;8.220;2023-05-10T02:10:57;8.90;;;6.20;;
7657;SDS011;8462;53.156;8.220;2023-05-10T02:13:26;7.60;;;5.67;;
7657;SDS011;8462;53.156;8.220;2023-05-10T02:15:55;8.87;;;6.13;;
7657;SDS011;8462;53.156;8.220;2023-05-10T02:18:23;7.83;;;5.97;;
7657;SDS011;8462;53.156;8.220;2023-05-10T02:20:52;8.30;;;5.90;;
7657;SDS011;8462;53.156;8.220;2023-05-10T02:23:22;7.17;;;5.80;;
7657;SDS011;8462;53.156;8.220;2023-05-10T02:25:50;8.53;;;6.37;;
7657;SDS011;8462;53.156;8.220;2023-05-10T02:28:20;8.80;;;6.50;;
7657;SDS011;8462;53.156;8.220;2023-05-10T02:30:50;8.87;;;6.40;;
7657;SDS011;8462;53.156;8.220;2023-05-10T02:33:18;8.83;;;6.93;;
7657;SDS011;8462;53.156;8.220;2023-05-10T02:35:47;9.67;;;6.73;;
7657;SDS011;8462;53.156;8.220;2023-05-10T02:38:15;9.70;;;6.50;;
7657;SDS011;8462;53.156;8.220;2023-05-10T02:40:44;6.97;;;5.47;;
7657;SDS011;8462;53.156;8.220;2023-05-10T02:43:14;8.50;;;6.00;;
7657;SDS011;8462;53.156;8.220;2023-05-10T02:45:43;7.10;;;5.60;;
7657;SDS011;8462;53.156;8.220;2023-05-10T02:48:13;9.17;;;6.17;;
7657;SDS011;8462;53.156;8.220;2023-05-10T02:50:41;8.90;;;6.63;;
7657;SDS011;8462;53.156;8.220;2023-05-10T02:53:10;7.67;;;5.40;;
7657;SDS011;8462;53.156;8.220;2023-05-10T02:55:47;8.37;;;6.10;;
7657;SDS011;8462;53.156;8.220;2023-05-10T02:58:17;9.00;;;5.83;;
7657;SDS011;8462;53.156;8.220;2023-05-10T03:00:45;10.10;;;5.93;;
7657;SDS011;8462;53.156;8.220;2023-05-10T03:03:12;8.07;;;6.07;;
7657;SDS011;8462;53.156;8.220;2023-05-10T03:05:39;7.47;;;6.07;;
7657;SDS011;8462;53.156;8.220;2023-05-10T03:08:06;6.57;;;5.77;;
7657;SDS011;8462;53.156;8.220;2023-05-10T03:10:33;9.07;;;6.20;;
7657;SDS011;8462;53.156;8.220;2023-05-10T03:13:20;9.20;;;6.70;;
7657;SDS011;8462;53.156;8.220;2023-05-10T03:15:56;9.50;;;6.23;;
7657;SDS011;8462;53.156;8.220;2023-05-10T03:18:33;9.70;;;6.60;;
7657;SDS011;8462;53.156;8.220;2023-05-10T03:21:07;9.23;;;6.83;;
7657;SDS011;8462;53.156;8.220;2023-05-10T03:23:41;11.57;;;6.90;;
7657;SDS011;8462;53.156;8.220;2023-05-10T03:26:09;8.77;;;6.40;;
7657;SDS011;8462;53.156;8.220;2023-05-10T03:28:44;9.53;;;7.57;;
7657;SDS011;8462;53.156;8.220;2023-05-10T03:31:13;7.90;;;6.80;;
7657;SDS011;8462;53.156;8.220;2023-05-10T03:33:47;9.03;;;6.60;;
7657;SDS011;8462;53.156;8.220;2023-05-10T03:36:19;9.40;;;6.97;;
7657;SDS011;8462;53.156;8.220;2023-05-10T03:38:46;11.07;;;7.40;;
7657;SDS011;8462;53.156;8.220;2023-05-10T03:41:13;11.07;;;7.30;;
7657;SDS011;8462;53.156;8.220;2023-05-10T03:43:40;9.27;;;7.07;;
7657;SDS011;8462;53.156;8.220;2023-05-10T03:46:08;11.43;;;8.27;;
7657;SDS011;8462;53.156;8.220;2023-05-10T03:48:35;13.60;;;7.97;;
7657;SDS011;8462;53.156;8.220;2023-05-10T03:51:02;10.80;;;8.03;;
7657;SDS011;8462;53.156;8.220;2023-05-10T03:53:29;13.03;;;8.57;;
7657;SDS011;8462;53.156;8.220;2023-05-10T03:55:56;12.20;;;8.63;;
7657;SDS011;8462;53.156;8.220;2023-05-10T03:58:23;13.50;;;8.67;;
7657;SDS011;8462;53.156;8.220;2023-05-10T04:00:50;13.40;;;9.10;;
7657;SDS011;8462;53.156;8.220;2023-05-10T04:03:18;10.20;;;6.93;;
7657;SDS011;8462;53.156;8.220;2023-05-10T04:05:45;6.57;;;5.10;;
7657;SDS011;8462;53.156;8.220;2023-05-10T04:08:12;6.33;;;4.63;;
7657;SDS011;8462;53.156;8.220;2023-05-10T04:10:40;5.27;;;4.27;;
7657;SDS011;8462;53.156;8.220;2023-05-10T04:13:07;4.47;;;3.30;;
7657;SDS011;8462;53.156;8.220;2023-05-10T04:15:34;4.70;;;3.50;;
7657;SDS011;8462;53.156;8.220;2023-05-10T04:18:01;4.33;;;3.00;;
7657;SDS011;8462;53.156;8.220;2023-05-10T04:20:31;4.27;;;3.47;;
7657;SDS011;8462;53.156;8.220;2023-05-10T04:22:58;6.30;;;3.60;;
7657;SDS011;8462;53.156;8.220;2023-05-10T04:25:25;5.17;;;3.63;;
7657;SDS011;8462;53.156;8.220;2023-05-10T04:27:52;5.07;;;2.90;;
7657;SDS011;8462;53.156;8.220;2023-05-10T04:30:19;5.10;;;3.40;;
7657;SDS011;8462;53.156;8.220;2023-05-10T04:32:46;4.73;;;3.67;;
7657;SDS011;8462;53.156;8.220;2023-05-10T04:35:13;5.87;;;3.40;;
7657;SDS011;8462;53.156;8.220;2023-05-10T04:37:41;5.43;;;3.30;;
7657;SDS011;8462;53.156;8.220;2023-05-10T04:40:08;5.30;;;3.80;;
7657;SDS011;8462;53.156;8.220;2023-05-10T04:42:36;4.97;;;3.53;;
7657;SDS011;8462;53.156;8.220;2023-05-10T04:45:03;6.90;;;3.33;;
7657;SDS011;8462;53.156;8.220;2023-05-10T04:47:30;4.67;;;3.10;;
7657;SDS011;8462;53.156;8.220;2023-05-10T04:49:57;5.80;;;3.27;;
7657;SDS011;8462;53.156;8.220;2023-05-10T04:52:24;4.53;;;3.10;;
7657;SDS011;8462;53.156;8.220;2023-05-10T04:54:52;3.93;;;3.10;;
7657;SDS011;8462;53.156;8.220;2023-05-10T04:57:19;3.90;;;2.77;;
7657;SDS011;8462;53.156;8.220;2023-05-10T04:59:47;3.50;;;2.30;;
7657;SDS011;8462;53.156;8.220;2023-05-10T05:02:14;3.63;;;1.80;;
7657;SDS011;8462;53.156;8.220;2023-05-10T05:04:41;1.87;;;1.50;;
7657;SDS011;8462;53.156;8.220;2023-05-10T05:07:08;3.90;;;2.20;;
7657;SDS011;8462;53.156;8.220;2023-05-10T05:09:34;2.77;;;1.80;;
7657;SDS011;8462;53.156;8.220;2023-05-10T05:12:03;2.77;;;2.00;;
7657;SDS011;8462;53.156;8.220;2023-05-10T05:14:30;4.80;;;2.10;;
7657;SDS011;8462;53.156;8.220;2023-05-10T05:16:57;3.63;;;2.07;;
7657;SDS011;8462;53.156;8.220;2023-05-10T05:19:24;4.60;;;2.70;;
7657;SDS011;8462;53.156;8.220;2023-05-10T05:21:51;4.07;;;2.73;;
7657;SDS011;8462;53.156;8.220;2023-05-10T05:24:18;4.80;;;2.80;;
7657;SDS011;8462;53.156;8.220;2023-05-10T05:26:45;4.77;;;2.90;;
7657;SDS011;8462;53.156;8.220;2023-05-10T05:29:13;4.33;;;3.23;;
7657;SDS011;8462;53.156;8.220;2023-05-10T05:31:40;5.97;;;3.03;;
7657;SDS011;8462;53.156;8.220;2023-05-10T05:34:07;5.50;;;3.37;;
7657;SDS011;8462;53.156;8.220;2023-05-10T05:36:35;5.93;;;3.47;;
7657;SDS011;8462;53.156;8.220;2023-05-10T05:39:03;5.77;;;3.37;;
7657;SDS011;8462;53.156;8.220;2023-05-10T05:41:30;6.80;;;3.73;;
7657;SDS011;8462;53.156;8.220;2023-05-10T05:43:57;4.60;;;3.30;;
7657;SDS011;8462;53.156;8.220;2023-05-10T05:46:25;4.50;;;3.30;;
7657;SDS011;8462;53.156;8.220;2023-05-10T05:48:52;4.73;;;4.00;;
7657;SDS011;8462;53.156;8.220;2023-05-10T05:51:18;5.57;;;4.30;;
7657;SDS011;8462;53.156;8.220;2023-05-10T05:53:45;6.10;;;4.13;;
7657;SDS011;8462;53.156;8.220;2023-05-10T05:56:12;5.03;;;4.07;;
7657;SDS011;8462;53.156;8.220;2023-05-10T05:58:39;4.17;;;3.00;;
7657;SDS011;8462;53.156;8.220;2023-05-10T06:01:06;5.27;;;3.77;;
7657;SDS011;8462;53.156;8.220;2023-05-10T06:03:35;5.93;;;4.17;;
7657;SDS011;8462;53.156;8.220;2023-05-10T06:06:02;5.40;;;3.70;;
7657;SDS011;8462;53.156;8.220;2023-05-10T06:08:29;5.10;;;3.70;;
7657;SDS011;8462;53.156;8.220;2023-05-10T06:10:56;5.43;;;3.63;;
7657;SDS011;8462;53.156;8.220;2023-05-10T06:13:23;6.23;;;4.03;;
7657;SDS011;8462;53.156;8.220;2023-05-10T06:15:49;5.27;;;3.73;;
7657;SDS011;8462;53.156;8.220;2023-05-10T06:18:16;6.77;;;4.20;;
7657;SDS011;8462;53.156;8.220;2023-05-10T06:20:44;5.93;;;3.73;;
7657;SDS011;8462;53.156;8.220;2023-05-10T06:23:11;5.73;;;3.60;;
7657;SDS011;8462;53.156;8.220;2023-05-10T06:25:38;6.40;;;4.30;;
7657;SDS011;8462;53.156;8.220;2023-05-10T06:28:05;5.40;;;4.17;;
7657;SDS011;8462;53.156;8.220;2023-05-10T06:30:32;5.40;;;3.80;;
7657;SDS011;8462;53.156;8.220;2023-05-10T06:32:59;5.87;;;4.07;;
7657;SDS011;8462;53.156;8.220;2023-05-10T06:35:26;4.43;;;3.60;;
7657;SDS011;8462;53.156;8.220;2023-05-10T06:37:54;4.80;;;3.70;;
7657;SDS011;8462;53.156;8.220;2023-05-10T06:40:21;6.20;;;4.57;;
7657;SDS011;8462;53.156;8.220;2023-05-10T06:42:48;6.47;;;3.53;;
7657;SDS011;8462;53.156;8.220;2023-05-10T06:45:16;4.87;;;4.00;;
7657;SDS011;8462;53.156;8.220;2023-05-10T06:47:43;7.23;;;4.37;;
7657;SDS011;8462;53.156;8.220;2023-05-10T06:50:11;4.87;;;3.90;;
7657;SDS011;8462;53.156;8.220;2023-05-10T06:52:38;5.93;;;4.27;;
7657;SDS011;8462;53.156;8.220;2023-05-10T06:55:06;6.30;;;4.53;;
7657;SDS011;8462;53.156;8.220;2023-05-10T06:57:34;5.63;;;4.10;;
7657;SDS011;8462;53.156;8.220;2023-05-10T07:00:02;5.33;;;3.97;;
7657;SDS011;8462;53.156;8.220;2023-05-10T07:02:30;7.13;;;4.40;;
7657;SDS011;8462;53.156;8.220;2023-05-10T07:04:57;6.17;;;4.37;;
7657;SDS011;8462;53.156;8.220;2023-05-10T07:07:25;7.03;;;4.57;;
7657;SDS011;8462;53.156;8.220;2023-05-10T07:09:51;6.83;;;4.37;;
7657;SDS011;8462;53.156;8.220;2023-05-10T07:12:20;6.43;;;4.20;;
7657;SDS011;8462;53.156;8.220;2023-05-10T07:14:47;8.03;;;4.60;;
7657;SDS011;8462;53.156;8.220;2023-05-10T07:17:14;6.60;;;4.10;;
7657;SDS011;8462;53.156;8.220;2023-05-10T07:19:47;5.40;;;3.93;;
7657;SDS011;8462;53.156;8.220;2023-05-10T07:22:15;6.60;;;3.80;;
7657;SDS011;8462;53.156;8.220;2023-05-10T07:24:42;8.10;;;4.53;;
7657;SDS011;8462;53.156;8.220;2023-05-10T07:27:09;6.27;;;4.80;;
7657;SDS011;8462;53.156;8.220;2023-05-10T07:29:37;8.50;;;4.67;;
7657;SDS011;8462;53.156;8.220;2023-05-10T07:32:04;6.80;;;4.90;;
7657;SDS011;8462;53.156;8.220;2023-05-10T07:34:32;6.33;;;4.63;;
7657;SDS011;8462;53.156;8.220;2023-05-10T07:36:59;7.13;;;4.60;;
7657;SDS011;8462;53.156;8.220;2023-05-10T07:39:26;7.97;;;4.90;;
7657;SDS011;8462;53.156;8.220;2023-05-10T07:41:54;5.70;;;4.27;;
7657;SDS011;8462;53.156;8.220;2023-05-10T07:44:21;6.77;;;4.20;;
7657;SDS011;8462;53.156;8.220;2023-05-10T07:46:50;4.70;;;3.93;;
7657;SDS011;8462;53.156;8.220;2023-05-10T07:49:17;4.93;;;4.00;;
7657;SDS011;8462;53.156;8.220;2023-05-10T07:51:44;6.13;;;3.97;;
7657;SDS011;8462;53.156;8.220;2023-05-10T07:54:14;6.27;;;4.50;;
7657;SDS011;8462;53.156;8.220;2023-05-10T07:56:41;4.83;;;3.53;;
7657;SDS011;8462;53.156;8.220;2023-05-10T07:59:14;4.97;;;3.47;;
7657;SDS011;8462;53.156;8.220;2023-05-10T08:01:41;4.90;;;3.60;;
7657;SDS011;8462;53.156;8.220;2023-05-10T08:04:10;4.70;;;3.20;;
7657;SDS011;8462;53.156;8.220;2023-05-10T08:06:37;6.73;;;4.10;;
7657;SDS011;8462;53.156;8.220;2023-05-10T08:09:05;4.13;;;3.00;;
7657;SDS011;8462;53.156;8.220;2023-05-10T08:11:32;4.53;;;3.47;;
7657;SDS011;8462;53.156;8.220;2023-05-10T08:13:59;4.93;;;3.20;;
7657;SDS011;8462;53.156;8.220;2023-05-10T08:16:25;3.40;;;2.87;;
7657;SDS011;8462;53.156;8.220;2023-05-10T08:18:53;4.30;;;3.37;;
7657;SDS011;8462;53.156;8.220;2023-05-10T08:21:22;3.53;;;2.90;;
7657;SDS011;8462;53.156;8.220;2023-05-10T08:23:49;4.17;;;2.83;;
7657;SDS011;8462;53.156;8.220;2023-05-10T08:26:17;4.50;;;2.93;;
7657;SDS011;8462;53.156;8.220;2023-05-10T08:28:44;4.00;;;2.70;;
7657;SDS011;8462;53.156;8.220;2023-05-10T08:31:11;3.63;;;2.70;;
7657;SDS011;8462;53.156;8.220;2023-05-10T08:33:38;3.30;;;2.40;;
7657;SDS011;8462;53.156;8.220;2023-05-10T08:36:05;4.23;;;3.00;;
7657;SDS011;8462;53.156;8.220;2023-05-10T08:38:35;3.87;;;2.83;;
7657;SDS011;8462;53.156;8.220;2023-05-10T08:41:03;3.17;;;2.47;;
7657;SDS011;8462;53.156;8.220;2023-05-10T08:43:31;3.10;;;2.30;;
7657;SDS011;8462;53.156;8.220;2023-05-10T08:45:59;2.20;;;2.00;;
7657;SDS011;8462;53.156;8.220;2023-05-10T08:48:29;2.93;;;2.23;;
7657;SDS011;8462;53.156;8.220;2023-05-10T08:50:56;2.90;;;2.43;;
7657;SDS011;8462;53.156;8.220;2023-05-10T08:53:25;2.70;;;2.20;;
7657;SDS011;8462;53.156;8.220;2023-05-10T08:55:56;3.30;;;2.50;;
7657;SDS011;8462;53.156;8.220;2023-05-10T08:58:23;4.37;;;3.10;;
7657;SDS011;8462;53.156;8.220;2023-05-10T09:00:51;3.97;;;2.70;;
7657;SDS011;8462;53.156;8.220;2023-05-10T09:03:19;3.83;;;2.60;;
7657;SDS011;8462;53.156;8.220;2023-05-10T09:05:46;7.00;;;3.17;;
7657;SDS011;8462;53.156;8.220;2023-05-10T09:08:13;3.77;;;2.70;;
7657;SDS011;8462;53.156;8.220;2023-05-10T09:10:42;4.03;;;2.77;;
7657;SDS011;8462;53.156;8.220;2023-05-10T09:13:11;2.67;;;2.47;;
7657;SDS011;8462;53.156;8.220;2023-05-10T09:15:39;3.90;;;2.57;;
7657;SDS011;8462;53.156;8.220;2023-05-10T09:18:06;4.07;;;3.10;;
7657;SDS011;8462;53.156;8.220;2023-05-10T09:20:32;6.03;;;2.77;;
7657;SDS011;8462;53.156;8.220;2023-05-10T09:22:59;6.27;;;3.30;;
7657;SDS011;8462;53.156;8.220;2023-05-10T09:25:26;5.23;;;3.20;;
7657;SDS011;8462;53.156;8.220;2023-05-10T09:27:53;4.67;;;3.03;;
7657;SDS011;8462;53.156;8.220;2023-05-10T09:30:24;3.10;;;2.70;;
7657;SDS011;8462;53.156;8.220;2023-05-10T09:32:53;4.47;;;3.10;;
7657;SDS011;8462;53.156;8.220;2023-05-10T09:35:21;3.60;;;3.00;;
7657;SDS011;8462;53.156;8.220;2023-05-10T09:37:52;3.40;;;2.93;;
7657;SDS011;8462;53.156;8.220;2023-05-10T09:40:22;2.70;;;2.37;;
7657;SDS011;8462;53.156;8.220;2023-05-10T09:42:51;3.60;;;2.73;;
7657;SDS011;8462;53.156;8.220;2023-05-10T09:45:20;4.87;;;2.50;;
7657;SDS011;8462;53.156;8.220;2023-05-10T09:47:49;3.37;;;2.50;;
7657;SDS011;8462;53.156;8.220;2023-05-10T09:50:16;2.50;;;2.00;;
7657;SDS011;8462;53.156;8.220;2023-05-10T09:52:47;1.70;;;1.60;;
7657;SDS011;8462;53.156;8.220;2023-05-10T09:55:16;1.70;;;1.20;;
7657;SDS011;8462;53.156;8.220;2023-05-10T09:57:45;1.63;;;1.17;;
7657;SDS011;8462;53.156;8.220;2023-05-10T10:00:16;2.93;;;1.33;;
7657;SDS011;8462;53.156;8.220;2023-05-10T10:02:45;1.70;;;1.30;;
7657;SDS011;8462;53.156;8.220;2023-05-10T10:05:14;1.80;;;1.20;;
7657;SDS011;8462;53.156;8.220;2023-05-10T10:07:41;1.37;;;1.10;;
7657;SDS011;8462;53.156;8.220;2023-05-10T10:10:09;1.23;;;1.13;;
7657;SDS011;8462;53.156;8.220;2023-05-10T10:12:38;1.30;;;1.20;;
7657;SDS011;8462;53.156;8.220;2023-05-10T10:15:07;1.47;;;1.20;;
7657;SDS011;8462;53.156;8.220;2023-05-10T10:17:35;1.27;;;1.07;;
7657;SDS011;8462;53.156;8.220;2023-05-10T10:20:03;3.33;;;0.90;;
7657;SDS011;8462;53.156;8.220;2023-05-10T10:22:32;1.53;;;0.80;;
7657;SDS011;8462;53.156;8.220;2023-05-10T10:25:00;1.17;;;0.90;;
7657;SDS011;8462;53.156;8.220;2023-05-10T10:27:28;2.20;;;0.87;;
7657;SDS011;8462;53.156;8.220;2023-05-10T10:30:04;1.10;;;1.00;;
7657;SDS011;8462;53.156;8.220;2023-05-10T10:32:44;0.60;;;0.60;;
7657;SDS011;8462;53.156;8.220;2023-05-10T10:35:27;0.87;;;0.57;;
7657;SDS011;8462;53.156;8.220;2023-05-10T10:37:57;2.40;;;2.20;;
7657;SDS011;8462;53.156;8.220;2023-05-10T10:40:25;1.50;;;0.60;;
7657;SDS011;8462;53.156;8.220;2023-05-10T10:42:53;1.20;;;0.70;;
7657;SDS011;8462;53.156;8.220;2023-05-10T10:45:22;0.63;;;0.60;;
7657;SDS011;8462;53.156;8.220;2023-05-10T10:47:53;0.53;;;0.50;;
7657;SDS011;8462;53.156;8.220;2023-05-10T10:50:43;0.50;;;0.50;;
7657;SDS011;8462;53.156;8.220;2023-05-10T10:53:12;1.53;;;0.50;;
7657;SDS011;8462;53.156;8.220;2023-05-10T10:55:45;0.70;;;0.60;;
7657;SDS011;8462;53.156;8.220;2023-05-10T10:58:28;3.00;;;0.87;;
7657;SDS011;8462;53.156;8.220;2023-05-10T11:01:08;1.47;;;0.70;;
7657;SDS011;8462;53.156;8.220;2023-05-10T11:03:40;0.90;;;0.50;;
7657;SDS011;8462;53.156;8.220;2023-05-10T11:06:28;0.87;;;0.73;;
7657;SDS011;8462;53.156;8.220;2023-05-10T11:08:57;1.63;;;0.87;;
7657;SDS011;8462;53.156;8.220;2023-05-10T11:11:24;0.50;;;0.50;;
7657;SDS011;8462;53.156;8.220;2023-05-10T11:13:52;1.33;;;0.70;;
7657;SDS011;8462;53.156;8.220;2023-05-10T11:16:20;1.03;;;0.70;;
7657;SDS011;8462;53.156;8.220;2023-05-10T11:21:36;1.93;;;0.70;;
7657;SDS011;8462;53.156;8.220;2023-05-10T11:24:14;1.33;;;0.90;;
7657;SDS011;8462;53.156;8.220;2023-05-10T11:26:42;3.30;;;0.90;;
7657;SDS011;8462;53.156;8.220;2023-05-10T11:29:12;1.27;;;0.80;;
7657;SDS011;8462;53.156;8.220;2023-05-10T11:31:42;2.80;;;1.20;;
7657;SDS011;8462;53.156;8.220;2023-05-10T11:34:10;4.23;;;2.13;;
7657;SDS011;8462;53.156;8.220;2023-05-10T11:36:37;4.83;;;2.00;;
7657;SDS011;8462;53.156;8.220;2023-05-10T11:39:05;3.33;;;1.87;;
7657;SDS011;8462;53.156;8.220;2023-05-10T11:41:34;2.33;;;1.83;;
7657;SDS011;8462;53.156;8.220;2023-05-10T11:44:01;3.20;;;2.40;;
7657;SDS011;8462;53.156;8.220;2023-05-10T11:46:28;3.67;;;2.93;;
7657;SDS011;8462;53.156;8.220;2023-05-10T11:48:57;4.30;;;3.57;;
7657;SDS011;8462;53.156;8.220;2023-05-10T11:51:29;5.90;;;3.53;;
7657;SDS011;8462;53.156;8.220;2023-05-10T11:53:59;4.80;;;3.90;;
7657;SDS011;8462;53.156;8.220;2023-05-10T11:56:26;11.70;;;4.90;;
7657;SDS011;8462;53.156;8.220;2023-05-10T11:58:55;9.20;;;6.23;;
7657;SDS011;8462;53.156;8.220;2023-05-10T12:01:25;11.70;;;5.87;;
7657;SDS011;8462;53.156;8.220;2023-05-10T12:03:53;8.87;;;5.97;;
7657;SDS011;8462;53.156;8.220;2023-05-10T12:06:25;10.90;;;5.90;;
7657;SDS011;8462;53.156;8.220;2023-05-10T12:08:53;9.93;;;6.30;;
7657;SDS011;8462;53.156;8.220;2023-05-10T12:11:20;11.57;;;6.20;;
7657;SDS011;8462;53.156;8.220;2023-05-10T12:13:51;8.97;;;6.07;;
7657;SDS011;8462;53.156;8.220;2023-05-10T12:16:20;7.97;;;5.83;;
7657;SDS011;8462;53.156;8.220;2023-05-10T12:18:48;8.37;;;5.47;;
7657;SDS011;8462;53.156;8.220;2023-05-10T12:21:16;6.70;;;5.10;;
7657;SDS011;8462;53.156;8.220;2023-05-10T12:23:45;7.93;;;5.87;;
7657;SDS011;8462;53.156;8.220;2023-05-10T12:26:13;7.43;;;5.13;;
7657;SDS011;8462;53.156;8.220;2023-05-10T12:28:40;7.70;;;4.80;;
7657;SDS011;8462;53.156;8.220;2023-05-10T12:31:07;7.80;;;4.50;;
7657;SDS011;8462;53.156;8.220;2023-05-10T12:33:39;5.83;;;4.37;;
7657;SDS011;8462;53.156;8.220;2023-05-10T12:36:08;6.70;;;4.50;;
7657;SDS011;8462;53.156;8.220;2023-05-10T12:38:36;6.60;;;4.50;;
7657;SDS011;8462;53.156;8.220;2023-05-10T12:41:06;6.33;;;5.00;;
7657;SDS011;8462;53.156;8.220;2023-05-10T12:43:34;5.20;;;4.63;;
7657;SDS011;8462;53.156;8.220;2023-05-10T12:46:05;6.83;;;4.10;;
7657;SDS011;8462;53.156;8.220;2023-05-10T12:48:33;5.83;;;4.67;;
7657;SDS011;8462;53.156;8.220;2023-05-10T12:51:02;5.13;;;4.40;;
7657;SDS011;8462;53.156;8.220;2023-05-10T12:53:29;5.97;;;4.60;;
7657;SDS011;8462;53.156;8.220;2023-05-10T12:55:56;4.73;;;4.20;;
7657;SDS011;8462;53.156;8.220;2023-05-10T12:58:23;4.87;;;3.00;;
7657;SDS011;8462;53.156;8.220;2023-05-10T13:00:50;4.67;;;4.03;;
7657;SDS011;8462;53.156;8.220;2023-05-10T13:03:17;5.00;;;3.90;;
7657;SDS011;8462;53.156;8.220;2023-05-10T13:05:44;6.47;;;3.53;;
7657;SDS011;8462;53.156;8.220;2023-05-10T13:08:13;4.63;;;3.97;;
7657;SDS011;8462;53.156;8.220;2023-05-10T13:10:40;4.23;;;3.70;;
7657;SDS011;8462;53.156;8.220;2023-05-10T13:13:07;4.40;;;3.20;;
7657;SDS011;8462;53.156;8.220;2023-05-10T13:15:35;5.90;;;3.50;;
7657;SDS011;8462;53.156;8.220;2023-05-10T13:18:02;4.50;;;3.50;;
7657;SDS011;8462;53.156;8.220;2023-05-10T13:20:29;4.50;;;3.47;;
7657;SDS011;8462;53.156;8.220;2023-05-10T13:22:56;3.90;;;2.93;;
7657;SDS011;8462;53.156;8.220;2023-05-10T13:25:24;3.97;;;3.40;;
7657;SDS011;8462;53.156;8.220;2023-05-10T13:27:51;3.63;;;3.33;;
7657;SDS011;8462;53.156;8.220;2023-05-10T13:30:18;3.90;;;3.20;;
7657;SDS011;8462;53.156;8.220;2023-05-10T13:32:45;5.03;;;3.20;;
7657;SDS011;8462;53.156;8.220;2023-05-10T13:35:12;4.27;;;3.70;;
7657;SDS011;8462;53.156;8.220;2023-05-10T13:37:39;2.97;;;2.50;;
7657;SDS011;8462;53.156;8.220;2023-05-10T13:40:06;2.90;;;2.57;;
7657;SDS011;8462;53.156;8.220;2023-05-10T13:42:36;5.13;;;2.70;;
7657;SDS011;8462;53.156;8.220;2023-05-10T13:45:03;2.63;;;2.43;;
7657;SDS011;8462;53.156;8.220;2023-05-10T13:47:31;2.77;;;2.20;;
7657;SDS011;8462;53.156;8.220;2023-05-10T13:49:58;3.93;;;3.00;;
7657;SDS011;8462;53.156;8.220;2023-05-10T13:52:25;2.77;;;2.43;;
7657;SDS011;8462;53.156;8.220;2023-05-10T13:54:52;2.50;;;2.30;;
7657;SDS011;8462;53.156;8.220;2023-05-10T13:57:21;2.30;;;1.90;;
7657;SDS011;8462;53.156;8.220;2023-05-10T13:59:52;1.60;;;1.50;;
7657;SDS011;8462;53.156;8.220;2023-05-10T14:02:19;1.60;;;1.50;;
7657;SDS011;8462;53.156;8.220;2023-05-10T14:04:46;2.03;;;1.47;;
7657;SDS011;8462;53.156;8.220;2023-05-10T14:07:13;2.23;;;1.70;;
7657;SDS011;8462;53.156;8.220;2023-05-10T14:09:40;1.60;;;1.50;;
7657;SDS011;8462;53.156;8.220;2023-05-10T14:12:08;1.93;;;1.73;;
7657;SDS011;8462;53.156;8.220;2023-05-10T14:14:36;2.30;;;1.70;;
7657;SDS011;8462;53.156;8.220;2023-05-10T14:17:04;2.43;;;1.80;;
7657;SDS011;8462;53.156;8.220;2023-05-10T14:19:32;2.00;;;1.80;;
7657;SDS011;8462;53.156;8.220;2023-05-10T14:22:00;1.90;;;1.50;;
7657;SDS011;8462;53.156;8.220;2023-05-10T14:24:27;1.67;;;1.50;;
7657;SDS011;8462;53.156;8.220;2023-05-10T14:26:53;1.83;;;1.30;;
7657;SDS011;8462;53.156;8.220;2023-05-10T14:29:20;2.67;;;1.60;;
7657;SDS011;8462;53.156;8.220;2023-05-10T14:31:48;2.70;;;1.83;;
7657;SDS011;8462;53.156;8.220;2023-05-10T14:34:17;2.07;;;1.50;;
7657;SDS011;8462;53.156;8.220;2023-05-10T14:36:44;2.83;;;1.80;;
7657;SDS011;8462;53.156;8.220;2023-05-10T14:39:10;2.50;;;1.70;;
7657;SDS011;8462;53.156;8.220;2023-05-10T14:41:38;2.30;;;1.57;;
7657;SDS011;8462;53.156;8.220;2023-05-10T14:44:06;1.63;;;1.53;;
7657;SDS011;8462;53.156;8.220;2023-05-10T14:46:33;4.80;;;1.67;;
7657;SDS011;8462;53.156;8.220;2023-05-10T14:49:00;1.40;;;1.30;;
7657;SDS011;8462;53.156;8.220;2023-05-10T14:51:29;2.30;;;1.50;;
7657;SDS011;8462;53.156;8.220;2023-05-10T14:53:56;1.90;;;1.70;;
7657;SDS011;8462;53.156;8.220;2023-05-10T14:56:23;1.97;;;1.73;;
7657;SDS011;8462;53.156;8.220;2023-05-10T14:58:51;1.83;;;1.40;;
7657;SDS011;8462;53.156;8.220;2023-05-10T15:01:18;2.53;;;1.47;;
7657;SDS011;8462;53.156;8.220;2023-05-10T15:03:45;1.90;;;1.40;;
7657;SDS011;8462;53.156;8.220;2023-05-10T15:06:13;1.50;;;1.40;;
7657;SDS011;8462;53.156;8.220;2023-05-10T15:08:42;1.70;;;1.60;;
7657;SDS011;8462;53.156;8.220;2023-05-10T15:11:09;1.47;;;1.33;;
7657;SDS011;8462;53.156;8.220;2023-05-10T15:13:36;1.70;;;1.10;;
7657;SDS011;8462;53.156;8.220;2023-05-10T15:16:04;2.33;;;1.47;;
7657;SDS011;8462;53.156;8.220;2023-05-10T15:18:30;2.40;;;1.33;;
7657;SDS011;8462;53.156;8.220;2023-05-10T15:20:57;1.50;;;1.40;;
7657;SDS011;8462;53.156;8.220;2023-05-10T15:23:24;1.47;;;1.30;;
7657;SDS011;8462;53.156;8.220;2023-05-10T15:25:53;2.57;;;1.47;;
7657;SDS011;8462;53.156;8.220;2023-05-10T15:28:20;2.30;;;1.30;;